Detall de PIREP

Printer-friendly versionPDF version

[2012/10/02 09:05:00]
Flight IATA:CT2300
Pilot Number:012
Company ICAO:CAT
Aircraft Type:A343/E
PAX:295
Departing Airport: LIEA
Destination Airport: LIBD
Alternate Airport:LIRN
Online: VATSIM
Route:KOLUS UM603 VEGAN UP748 TOPNO
Flight Level:F330
No Slew and time accel
No pause
Crash detect
Detect pilot in Cockpit between each 30 and 45 minutes
09:05 Zero fuel Weight: 337423 Lbs, Fuel Weight: 45950 Lbs
09:05 VATSIM:LIEA 020820Z VRB04KT 9999 FEW035 22/16 Q1021
09:05 VATSIM:LIBD 020820Z VRB03KT CAVOK 26/14 Q1015
09:05 VOICE CATALONIAN
09:12 Parking Brakes off
09:17 Take-off
09:17 Take off Weight: 381770 Lbs
09:17 Wind: 325º @ 006 Knots Heading: 201º
09:17 POS N40º 37´ 51´´ E008º 17´ 25´´
09:17 Gear Up: 188 Knots
09:17 Flaps:2 at 188 Knots
09:17 Flaps:1 at 215 Knots
09:17 Flaps:0 at 223 Knots
09:23 TOC
09:23 Fuel Weight: 40123 Lb
09:32 Wind:286º@027 Knots Heading: 084º Ground Speed: 503 Knots Altitude 33182 ft
09:47 Wind:272º@030 Knots Heading: 111º Ground Speed: 507 Knots Altitude 33116 ft
09:53 TOD
09:53 Fuel Weight: 35434 Lb
10:02 Wind:242º@020 Knots Heading: 053º Ground Speed: 356 Knots Altitude 13362 ft
10:11 Flaps:1 at 215 Knots
10:11 Gear Down: 202 Knots
10:12 Flaps:3 at 185 Knots
10:12 Flaps:4 at 152 Knots
10:13 Flaps:5 at 141 Knots
10:16 TouchDown:Rate -47 ft/min Speed: 127 Knots
10:17 Wind:358º@008 Knots Heading: 069º Ground Speed: 081 Knots Altitude 190 ft
10:17 VATSIM:LIBD 020950Z 01009KT 9999 FEW035 25/16 Q1016
10:17 Land
10:17 Wind:358º@008 Knots
10:17 Heading: 068º
10:17 Flight Duration: 01:00
10:17 Landing Weight: 370935 Lbs
10:17 POS N41º 08´ 21´´ E016º 45´ 48´´
10:21 Parking brakes on
10:21 Block to Block Duration: 01:09
10:21 Final Fuel: 32700 Lbls
10:21 Spent Fuel: 13249 Lbls
10:21 FlightLength: 408 NM
10:21 TOD Land Length: 119 NM

Exportar CSV

Powered by Drupal - Modified by Danger4k